createdAt,value
2024-05-09T00:01:37.025Z,11.44
2024-05-09T00:04:07.594Z,11.34
2024-05-09T00:06:40.256Z,11.14
2024-05-09T00:09:10.569Z,11.11
2024-05-09T00:11:40.261Z,11.00
2024-05-09T00:14:10.226Z,10.83
2024-05-09T00:16:39.806Z,10.87
2024-05-09T00:19:09.525Z,10.80
2024-05-09T00:21:44.173Z,10.68
2024-05-09T00:24:14.131Z,10.61
2024-05-09T00:26:43.817Z,10.61
2024-05-09T00:29:13.711Z,10.65
2024-05-09T00:31:43.309Z,10.71
2024-05-09T00:34:13.023Z,10.73
2024-05-09T00:36:45.235Z,10.87
2024-05-09T00:39:14.872Z,10.87
2024-05-09T00:41:44.510Z,10.65
2024-05-09T00:44:14.190Z,10.38
2024-05-09T00:46:44.470Z,10.36
2024-05-09T00:49:15.542Z,10.45
2024-05-09T00:51:48.147Z,10.48
2024-05-09T00:54:19.964Z,10.30
2024-05-09T00:56:52.391Z,10.26
2024-05-09T00:59:22.691Z,10.29
2024-05-09T01:01:52.449Z,10.08
2024-05-09T01:04:22.146Z,9.98
2024-05-09T01:06:54.507Z,10.02
2024-05-09T01:09:26.956Z,10.19
2024-05-09T01:11:56.586Z,10.27
2024-05-09T01:14:34.978Z,10.11
2024-05-09T01:17:04.749Z,10.19
2024-05-09T01:20:32.087Z,10.08
2024-05-09T01:23:14.784Z,9.76
2024-05-09T01:25:47.037Z,9.70
2024-05-09T01:28:17.193Z,9.52
2024-05-09T01:30:47.129Z,9.44
2024-05-09T01:33:19.151Z,9.37
2024-05-09T01:35:51.319Z,9.23
2024-05-09T01:38:23.688Z,9.23
2024-05-09T01:40:53.248Z,9.34
2024-05-09T01:43:23.104Z,9.45
2024-05-09T01:45:55.107Z,9.57
2024-05-09T01:48:24.998Z,9.52
2024-05-09T01:50:56.041Z,9.70
2024-05-09T01:53:29.039Z,9.66
2024-05-09T01:55:58.735Z,9.50
2024-05-09T01:58:28.375Z,9.54
2024-05-09T02:00:58.184Z,9.40
2024-05-09T02:03:28.131Z,9.40
2024-05-09T02:05:58.050Z,9.50
2024-05-09T02:08:30.241Z,9.80
2024-05-09T02:10:59.931Z,9.93
2024-05-09T02:13:32.520Z,9.97
2024-05-09T02:16:02.196Z,10.03
2024-05-09T02:18:34.675Z,10.03
2024-05-09T02:21:06.934Z,9.75
2024-05-09T02:23:39.232Z,9.43
2024-05-09T02:26:09.096Z,9.48
2024-05-09T02:28:38.647Z,9.56
2024-05-09T02:31:08.239Z,9.60
2024-05-09T02:33:38.394Z,9.68
2024-05-09T02:36:09.389Z,9.78
2024-05-09T02:38:39.929Z,9.78
2024-05-09T02:41:09.627Z,9.67
2024-05-09T02:43:36.842Z,9.65
2024-05-09T02:46:06.426Z,9.62
2024-05-09T02:48:33.551Z,9.38
2024-05-09T02:51:04.858Z,9.03
2024-05-09T02:53:31.985Z,9.04
2024-05-09T02:56:04.308Z,9.18
2024-05-09T02:58:31.484Z,9.16
2024-05-09T03:01:01.239Z,9.26
2024-05-09T03:03:28.842Z,9.25
2024-05-09T03:06:03.095Z,9.31
2024-05-09T03:08:30.256Z,9.10
2024-05-09T03:10:59.948Z,8.83
2024-05-09T03:13:29.778Z,8.73
2024-05-09T03:16:02.571Z,8.76
2024-05-09T03:18:29.982Z,8.71
2024-05-09T03:21:02.934Z,8.82
2024-05-09T03:23:30.315Z,8.93
2024-05-09T03:26:01.018Z,8.98
2024-05-09T03:28:30.980Z,9.12
2024-05-09T03:31:03.813Z,9.25
2024-05-09T03:33:31.217Z,9.25
2024-05-09T03:36:00.878Z,9.17
2024-05-09T03:38:30.643Z,9.22
2024-05-09T03:40:57.942Z,9.20
2024-05-09T03:43:27.536Z,9.14
2024-05-09T03:46:00.125Z,9.12
2024-05-09T03:48:27.601Z,9.05
2024-05-09T03:50:57.374Z,9.05
2024-05-09T03:53:25.468Z,9.01
2024-05-09T03:55:56.939Z,9.05
2024-05-09T03:58:24.220Z,9.15
2024-05-09T04:00:54.331Z,9.37
2024-05-09T04:03:24.391Z,9.63
2024-05-09T04:05:56.358Z,9.87
2024-05-09T04:08:23.837Z,9.77
2024-05-09T04:10:55.752Z,9.95
2024-05-09T04:13:23.211Z,9.86
2024-05-09T04:15:53.246Z,9.91
2024-05-09T04:18:20.373Z,10.09
2024-05-09T04:20:52.706Z,10.25
2024-05-09T04:23:20.282Z,10.29
2024-05-09T04:25:49.974Z,10.22
2024-05-09T04:28:17.168Z,10.27
2024-05-09T04:30:47.243Z,10.53
2024-05-09T04:33:15.373Z,10.49
2024-05-09T04:35:45.932Z,10.58
2024-05-09T04:38:16.197Z,10.70
2024-05-09T04:40:46.149Z,10.64
2024-05-09T04:43:19.453Z,10.66
2024-05-09T04:45:50.404Z,10.83
2024-05-09T04:48:17.900Z,10.84
2024-05-09T04:50:47.714Z,10.93
2024-05-09T04:53:18.173Z,11.11
2024-05-09T04:55:48.483Z,11.43
2024-05-09T04:58:15.544Z,11.64
2024-05-09T05:00:45.961Z,11.86
2024-05-09T05:03:15.508Z,12.02
2024-05-09T05:05:49.264Z,12.13
2024-05-09T05:08:19.644Z,11.87
2024-05-09T05:10:50.311Z,11.83
2024-05-09T05:13:21.248Z,11.95
2024-05-09T05:15:56.453Z,12.06
2024-05-09T05:18:26.187Z,12.36
2024-05-09T05:20:57.520Z,12.69
2024-05-09T05:23:27.278Z,12.99
2024-05-09T05:25:57.193Z,13.26
2024-05-09T05:28:24.363Z,13.58
2024-05-09T05:30:54.058Z,13.73
2024-05-09T05:33:22.796Z,13.92
2024-05-09T05:35:53.072Z,14.15
2024-05-09T05:38:23.789Z,13.99
2024-05-09T05:40:58.837Z,13.55
2024-05-09T05:43:27.792Z,13.39
2024-05-09T05:45:57.560Z,13.65
2024-05-09T05:48:24.672Z,14.16
2024-05-09T05:50:54.323Z,14.43
2024-05-09T05:53:21.493Z,14.13
2024-05-09T05:55:52.042Z,14.17
2024-05-09T05:58:22.624Z,13.93
2024-05-09T06:00:54.011Z,14.12
2024-05-09T06:03:21.201Z,14.11
2024-05-09T06:05:50.817Z,14.44
2024-05-09T06:08:17.991Z,14.37
2024-05-09T06:10:47.997Z,14.28
2024-05-09T06:13:15.842Z,14.54
2024-05-09T06:15:48.775Z,14.82
2024-05-09T06:18:15.899Z,14.94
2024-05-09T06:20:45.997Z,15.26
2024-05-09T06:23:14.837Z,16.02
2024-05-09T06:25:44.956Z,15.98
2024-05-09T06:28:11.987Z,15.91
2024-05-09T06:30:42.903Z,16.35
2024-05-09T06:33:15.230Z,16.15
2024-05-09T06:35:48.500Z,16.18
2024-05-09T06:38:16.029Z,16.61
2024-05-09T06:40:48.195Z,16.48
2024-05-09T06:43:17.737Z,16.88
2024-05-09T06:45:49.828Z,16.94
2024-05-09T06:48:22.191Z,17.22
2024-05-09T06:50:52.862Z,18.00
2024-05-09T06:53:22.234Z,18.59
2024-05-09T06:55:52.180Z,18.96
2024-05-09T06:58:19.236Z,19.40
2024-05-09T07:00:49.434Z,19.05
2024-05-09T07:03:18.348Z,18.74
2024-05-09T07:05:52.093Z,18.90
2024-05-09T07:08:19.572Z,19.54
2024-05-09T07:10:49.823Z,20.20
2024-05-09T07:13:17.191Z,19.85
2024-05-09T07:15:46.860Z,21.08
2024-05-09T07:18:17.121Z,21.42
2024-05-09T07:20:51.265Z,20.25
2024-05-09T07:23:19.049Z,19.21
2024-05-09T07:25:49.431Z,19.28
2024-05-09T07:28:18.281Z,18.05
2024-05-09T07:30:48.309Z,19.01
2024-05-09T07:33:19.900Z,20.32
2024-05-09T07:35:54.076Z,19.39
2024-05-09T07:38:21.589Z,20.87
2024-05-09T07:40:51.754Z,20.62
2024-05-09T07:43:19.094Z,19.44
2024-05-09T07:45:53.536Z,19.71
2024-05-09T07:53:00.873Z,21.94
2024-05-09T07:53:50.982Z,20.75
2024-05-09T07:56:26.248Z,19.32
2024-05-09T07:58:54.368Z,19.67
2024-05-09T08:01:26.347Z,19.07
2024-05-09T08:03:55.008Z,19.98
2024-05-09T08:06:28.003Z,22.04
2024-05-09T08:08:56.066Z,23.06
2024-05-09T08:11:26.671Z,23.07
2024-05-09T08:13:53.784Z,21.31
2024-05-09T08:16:23.816Z,22.07
2024-05-09T08:18:53.588Z,22.57
2024-05-09T08:21:24.072Z,22.03
2024-05-09T08:23:56.413Z,20.99
2024-05-09T08:26:28.621Z,20.76
2024-05-09T08:28:55.602Z,21.70
2024-05-09T08:31:25.435Z,22.96
2024-05-09T08:33:52.792Z,23.93
2024-05-09T08:36:23.257Z,23.62
2024-05-09T08:38:53.202Z,23.93
2024-05-09T08:41:23.191Z,23.60
2024-05-09T08:43:50.497Z,24.76
2024-05-09T08:46:21.089Z,24.42
2024-05-09T08:48:50.290Z,23.45
2024-05-09T08:51:20.305Z,23.82
2024-05-09T08:53:47.567Z,25.05
2024-05-09T08:56:21.652Z,23.74
2024-05-09T08:58:49.585Z,22.11
2024-05-09T09:01:22.082Z,21.98
2024-05-09T09:03:53.684Z,21.39
2024-05-09T09:06:24.783Z,21.42
2024-05-09T09:08:53.534Z,21.52
2024-05-09T09:11:25.868Z,21.52
2024-05-09T09:13:53.018Z,22.40
2024-05-09T09:16:23.009Z,22.13
2024-05-09T09:18:53.402Z,21.77
2024-05-09T09:21:24.955Z,21.74
2024-05-09T09:23:52.714Z,20.48
2024-05-09T09:26:25.139Z,21.42
2024-05-09T09:28:52.149Z,22.51
2024-05-09T09:31:22.382Z,23.67
2024-05-09T09:33:49.786Z,21.59
2024-05-09T09:36:19.806Z,20.39
2024-05-09T09:38:48.009Z,21.72
2024-05-09T09:41:20.708Z,22.07
2024-05-09T09:43:50.967Z,21.88
2024-05-09T09:46:25.154Z,21.64
2024-05-09T09:48:53.722Z,22.51
2024-05-09T09:51:25.150Z,22.30
2024-05-09T09:53:52.681Z,22.34
2024-05-09T09:56:24.058Z,21.76
2024-05-09T09:58:57.910Z,21.79
2024-05-09T10:01:27.887Z,21.98
2024-05-09T10:03:55.180Z,22.82
2024-05-09T10:06:26.755Z,22.98
2024-05-09T10:08:54.890Z,24.99
2024-05-09T10:11:24.605Z,27.35
2024-05-09T10:13:55.126Z,27.72
2024-05-09T10:16:25.132Z,28.16
2024-05-09T10:18:52.431Z,24.72
2024-05-09T10:21:23.306Z,27.01
2024-05-09T10:23:57.839Z,29.37
2024-05-09T10:26:35.464Z,31.03
2024-05-09T10:29:17.157Z,34.24
2024-05-09T10:31:48.119Z,31.78
2024-05-09T10:34:19.292Z,29.13
2024-05-09T10:36:49.638Z,30.86
2024-05-09T10:39:19.277Z,28.82
2024-05-09T10:41:48.973Z,27.30
2024-05-09T10:44:22.486Z,27.66
2024-05-09T10:46:54.737Z,27.90
2024-05-09T10:49:22.949Z,25.98
2024-05-09T10:51:53.197Z,26.80
2024-05-09T10:54:20.298Z,28.76
2024-05-09T10:56:58.821Z,28.08
2024-05-09T10:59:33.096Z,27.12
2024-05-09T11:02:06.671Z,26.43
2024-05-09T11:04:35.319Z,26.02
2024-05-09T11:07:11.883Z,26.24
2024-05-09T11:09:40.287Z,27.09
2024-05-09T11:12:11.257Z,25.36
2024-05-09T11:14:41.355Z,25.30
2024-05-09T11:17:12.607Z,23.88
2024-05-09T11:19:42.803Z,22.69
2024-05-09T11:22:16.336Z,22.55
2024-05-09T11:24:44.698Z,22.15
2024-05-09T11:27:15.832Z,27.18
2024-05-09T11:29:47.549Z,30.99
2024-05-09T11:32:18.128Z,25.95
2024-05-09T11:34:45.757Z,23.07
2024-05-09T11:37:17.137Z,24.23
2024-05-09T11:39:47.742Z,28.23
2024-05-09T11:42:20.845Z,32.14
2024-05-09T11:44:51.453Z,31.10
2024-05-09T11:47:21.764Z,30.95
2024-05-09T11:49:49.405Z,33.00
2024-05-09T11:52:19.607Z,35.88
2024-05-09T11:54:47.028Z,35.52
2024-05-09T11:57:17.109Z,35.81
2024-05-09T11:59:44.567Z,33.13
2024-05-09T12:02:17.436Z,30.38
2024-05-09T12:04:46.947Z,29.36
2024-05-09T12:07:17.544Z,33.98
2024-05-09T12:09:45.475Z,33.96
2024-05-09T12:12:15.959Z,29.51
2024-05-09T12:14:43.334Z,31.94
2024-05-09T12:17:13.658Z,34.31
2024-05-09T12:19:43.783Z,33.67
2024-05-09T12:22:14.483Z,34.63
2024-05-09T12:24:42.107Z,32.93
2024-05-09T12:27:12.870Z,32.76
2024-05-09T12:29:41.391Z,33.44
2024-05-09T12:32:11.353Z,30.72
2024-05-09T12:34:38.862Z,30.88
2024-05-09T12:37:12.444Z,33.11
2024-05-09T12:39:40.402Z,31.65
2024-05-09T12:42:26.417Z,31.04
2024-05-09T12:44:55.349Z,36.68
2024-05-09T12:47:31.762Z,39.72
2024-05-09T12:49:59.637Z,41.54
2024-05-09T12:52:32.794Z,37.08
2024-05-09T12:55:00.296Z,31.78
2024-05-09T12:57:30.612Z,27.06
2024-05-09T12:59:58.001Z,25.19
2024-05-09T13:02:28.748Z,26.10
2024-05-09T13:04:57.234Z,26.77
2024-05-09T13:07:28.483Z,31.96
2024-05-09T13:09:59.664Z,28.78
2024-05-09T13:12:29.738Z,28.66
2024-05-09T13:14:57.422Z,28.49
2024-05-09T13:17:27.855Z,29.36
2024-05-09T13:19:55.465Z,28.88
2024-05-09T13:22:29.240Z,30.99
2024-05-09T13:24:59.605Z,30.80
2024-05-09T13:27:29.642Z,31.91
2024-05-09T13:29:57.541Z,37.30
2024-05-09T13:32:28.090Z,34.62
2024-05-09T13:34:56.022Z,36.19
2024-05-09T13:37:26.334Z,40.08
2024-05-09T13:39:53.942Z,42.18
2024-05-09T13:42:30.750Z,37.75
2024-05-09T13:44:57.980Z,33.13
2024-05-09T13:47:27.796Z,28.06
2024-05-09T13:49:55.452Z,24.93
2024-05-09T13:52:26.498Z,24.87
2024-05-09T13:54:53.630Z,23.87
2024-05-09T13:57:26.040Z,25.62
2024-05-09T13:59:56.223Z,29.33
2024-05-09T14:02:26.066Z,32.01
2024-05-09T14:04:53.433Z,30.77
2024-05-09T14:07:23.365Z,28.70
2024-05-09T14:09:50.835Z,24.60
2024-05-09T14:12:22.724Z,24.29
2024-05-09T14:14:50.200Z,24.08
2024-05-09T14:17:23.181Z,23.57
2024-05-09T14:19:50.296Z,26.79
2024-05-09T14:22:22.155Z,27.64
2024-05-09T14:24:49.178Z,26.78
2024-05-09T14:27:18.933Z,28.53
2024-05-09T14:29:46.084Z,32.58
2024-05-09T14:32:15.934Z,33.93
2024-05-09T14:34:45.859Z,32.02
2024-05-09T14:37:16.011Z,31.18
2024-05-09T14:39:43.135Z,28.91
2024-05-09T14:42:12.966Z,28.11
2024-05-09T14:44:40.530Z,28.33
2024-05-09T14:47:29.298Z,28.43
2024-05-09T14:49:59.565Z,33.33
2024-05-09T14:52:29.414Z,32.97
2024-05-09T14:55:00.352Z,32.30
2024-05-09T14:57:30.753Z,32.87
2024-05-09T14:59:58.239Z,34.64
2024-05-09T15:02:27.908Z,38.58
2024-05-09T15:04:55.293Z,38.01
2024-05-09T15:07:30.558Z,35.31
2024-05-09T15:09:58.516Z,39.28
2024-05-09T15:12:28.332Z,34.92
2024-05-09T15:14:55.331Z,30.59
2024-05-09T15:17:25.218Z,26.40
2024-05-09T15:19:52.555Z,25.28
2024-05-09T15:22:22.434Z,23.89
2024-05-09T15:24:55.509Z,23.35
2024-05-09T15:27:29.942Z,22.46
2024-05-09T15:29:57.054Z,23.11
2024-05-09T15:32:29.854Z,26.26
2024-05-09T15:34:57.763Z,30.37
2024-05-09T15:37:27.919Z,30.81
2024-05-09T15:39:58.907Z,31.01
2024-05-09T15:42:31.106Z,32.63
2024-05-09T15:44:58.234Z,36.74
2024-05-09T15:47:28.413Z,38.07
2024-05-09T15:49:55.945Z,38.51
2024-05-09T15:52:25.647Z,35.25
2024-05-09T15:54:56.966Z,30.73
2024-05-09T15:57:31.752Z,28.32
2024-05-09T16:00:00.141Z,26.38
2024-05-09T16:02:31.331Z,24.95
2024-05-09T16:04:59.058Z,23.49
2024-05-09T16:07:29.292Z,22.98
2024-05-09T16:09:56.905Z,22.80
2024-05-09T16:12:26.961Z,22.32
2024-05-09T16:14:57.174Z,22.41
2024-05-09T16:17:27.519Z,24.04
2024-05-09T16:19:55.241Z,26.08
2024-05-09T16:22:25.443Z,26.76
2024-05-09T16:24:52.923Z,26.54
2024-05-09T16:27:23.877Z,27.33
2024-05-09T16:29:52.709Z,26.25
2024-05-09T16:32:25.573Z,27.89
2024-05-09T16:34:53.890Z,27.27
2024-05-09T16:37:25.884Z,28.27
2024-05-09T16:39:55.122Z,27.47
2024-05-09T16:42:26.480Z,27.83
2024-05-09T16:44:55.621Z,27.60
2024-05-09T16:47:29.412Z,27.85
2024-05-09T16:50:00.498Z,26.83
2024-05-09T16:52:32.817Z,26.58
2024-05-09T16:55:01.947Z,28.88
2024-05-09T16:57:32.331Z,27.77
2024-05-09T17:00:00.031Z,27.37
2024-05-09T17:02:35.597Z,27.44
2024-05-09T17:05:03.707Z,27.50
2024-05-09T17:07:33.862Z,26.66
2024-05-09T17:10:01.890Z,25.74
2024-05-09T17:12:33.246Z,26.44
2024-05-09T17:15:04.594Z,27.85
2024-05-09T17:17:38.975Z,26.30
2024-05-09T17:20:23.104Z,25.87
2024-05-09T17:22:58.164Z,24.78
2024-05-09T17:25:28.499Z,24.57
2024-05-09T17:28:07.818Z,24.64
2024-05-09T17:30:40.929Z,24.35
2024-05-09T17:33:13.731Z,24.90
2024-05-09T17:35:46.279Z,24.12
2024-05-09T17:38:13.983Z,24.25
2024-05-09T17:40:44.642Z,24.66
2024-05-09T17:43:13.037Z,24.29
2024-05-09T17:45:43.169Z,24.30
2024-05-09T17:48:14.023Z,24.45
2024-05-09T17:50:44.814Z,23.88
2024-05-09T17:53:12.567Z,23.81
2024-05-09T17:55:43.478Z,23.73
2024-05-09T17:58:13.124Z,23.39
2024-05-09T18:00:43.271Z,23.05
2024-05-09T18:03:16.439Z,22.82
2024-05-09T18:05:46.794Z,23.12
2024-05-09T18:08:14.322Z,23.01
2024-05-09T18:10:45.391Z,22.79
2024-05-09T18:13:13.675Z,22.01
2024-05-09T18:15:45.436Z,21.70
2024-05-09T18:18:16.340Z,21.41
2024-05-09T18:20:49.245Z,20.94
2024-05-09T18:23:18.658Z,20.48
2024-05-09T18:25:54.830Z,20.17
2024-05-09T18:28:23.555Z,19.78
2024-05-09T18:30:53.802Z,19.57
2024-05-09T18:33:24.943Z,19.49
2024-05-09T18:35:55.266Z,19.33
2024-05-09T18:38:26.902Z,19.17
2024-05-09T18:40:57.295Z,19.04
2024-05-09T18:43:31.036Z,18.90
2024-05-09T18:46:07.150Z,18.75
2024-05-09T18:48:37.513Z,18.73
2024-05-09T18:51:08.793Z,18.58
2024-05-09T18:53:36.466Z,18.57
2024-05-09T18:56:07.243Z,18.46
2024-05-09T18:58:35.057Z,18.33
2024-05-09T19:01:05.973Z,18.29
2024-05-09T19:03:36.929Z,18.24
2024-05-09T19:06:07.523Z,18.18
2024-05-09T19:08:35.292Z,18.07
2024-05-09T19:11:05.848Z,17.99
2024-05-09T19:13:33.659Z,17.84
2024-05-09T19:16:05.212Z,17.82
2024-05-09T19:18:33.752Z,17.77
2024-05-09T19:21:07.312Z,17.62
2024-05-09T19:23:38.267Z,17.61
2024-05-09T19:26:11.402Z,17.56
2024-05-09T19:28:40.617Z,17.44
2024-05-09T19:31:10.982Z,17.40
2024-05-09T19:33:38.829Z,17.31
2024-05-09T19:36:12.321Z,17.32
2024-05-09T19:38:40.431Z,17.24
2024-05-09T19:41:18.582Z,17.23
2024-05-09T19:43:46.615Z,17.32
2024-05-09T19:46:17.128Z,17.40
2024-05-09T19:48:44.911Z,17.25
2024-05-09T19:51:17.776Z,17.40
2024-05-09T19:53:45.451Z,17.66
2024-05-09T19:56:15.739Z,17.86
2024-05-09T19:58:44.721Z,17.93
2024-05-09T20:01:14.804Z,18.04
2024-05-09T20:03:42.778Z,18.10
2024-05-09T20:06:24.402Z,18.14
2024-05-09T20:08:54.354Z,18.17
2024-05-09T20:11:24.427Z,18.18
2024-05-09T20:13:51.897Z,18.16
2024-05-09T20:16:22.422Z,18.09
2024-05-09T20:18:50.233Z,17.95
2024-05-09T20:21:22.963Z,17.88
2024-05-09T20:23:50.811Z,17.83
2024-05-09T20:26:22.695Z,17.77
2024-05-09T20:28:52.888Z,17.72
2024-05-09T20:31:26.416Z,17.60
2024-05-09T20:33:53.738Z,17.49
2024-05-09T20:36:27.045Z,17.34
2024-05-09T20:38:55.689Z,17.25
2024-05-09T20:41:25.964Z,17.02
2024-05-09T20:43:57.588Z,16.93
2024-05-09T20:46:28.908Z,16.73
2024-05-09T20:48:56.892Z,16.55
2024-05-09T20:51:30.993Z,16.29
2024-05-09T20:53:58.647Z,16.08
2024-05-09T20:56:28.920Z,15.88
2024-05-09T20:58:58.037Z,15.59
2024-05-09T21:01:29.779Z,15.36
2024-05-09T21:03:57.609Z,15.32
2024-05-09T21:06:30.579Z,15.25
2024-05-09T21:09:00.826Z,15.13
2024-05-09T21:11:31.153Z,14.97
2024-05-09T21:13:58.725Z,14.85
2024-05-09T21:16:28.852Z,14.82
2024-05-09T21:18:57.548Z,14.94
2024-05-09T21:21:30.368Z,14.93
2024-05-09T21:23:57.719Z,14.90
2024-05-09T21:26:27.712Z,15.05
2024-05-09T21:28:57.387Z,14.89
2024-05-09T21:31:27.530Z,14.84
2024-05-09T21:33:55.532Z,14.89
2024-05-09T21:36:26.038Z,14.87
2024-05-09T21:38:56.111Z,14.85
2024-05-09T21:41:26.570Z,14.84
2024-05-09T21:43:54.360Z,14.82
2024-05-09T21:46:25.491Z,14.79
2024-05-09T21:48:53.494Z,14.73
2024-05-09T21:51:23.784Z,14.72
2024-05-09T21:53:52.311Z,14.72
2024-05-09T21:56:25.043Z,14.54
2024-05-09T21:58:52.963Z,14.56
2024-05-09T22:01:23.529Z,14.57
2024-05-09T22:03:51.253Z,14.52
2024-05-09T22:06:21.217Z,14.45
2024-05-09T22:08:48.557Z,14.33
2024-05-09T22:11:18.661Z,14.35
2024-05-09T22:13:48.811Z,14.33
2024-05-09T22:16:18.774Z,14.29
2024-05-09T22:18:46.302Z,14.25
2024-05-09T22:21:16.387Z,13.92
2024-05-09T22:23:46.304Z,13.59
2024-05-09T22:26:16.639Z,13.39
2024-05-09T22:28:44.282Z,13.40
2024-05-09T22:31:17.067Z,13.46
2024-05-09T22:33:48.145Z,13.29
2024-05-09T22:36:18.494Z,13.04
2024-05-09T22:38:48.131Z,13.13
2024-05-09T22:41:18.629Z,13.28
2024-05-09T22:43:46.179Z,13.18
2024-05-09T22:46:19.160Z,13.04
2024-05-09T22:48:47.116Z,12.98
2024-05-09T22:51:17.233Z,12.80
2024-05-09T22:53:47.423Z,12.62
2024-05-09T22:56:15.018Z,12.38
2024-05-09T22:58:45.028Z,12.19
2024-05-09T23:01:17.359Z,12.25
2024-05-09T23:03:47.832Z,12.44
2024-05-09T23:06:15.637Z,12.51
2024-05-09T23:08:46.195Z,12.53
2024-05-09T23:11:13.287Z,12.57
2024-05-09T23:13:43.221Z,12.67
2024-05-09T23:16:10.183Z,12.73
2024-05-09T23:18:43.794Z,12.54
2024-05-09T23:21:11.413Z,12.36
2024-05-09T23:23:40.926Z,12.18
2024-05-09T23:26:08.000Z,12.05
2024-05-09T23:28:39.849Z,12.07
2024-05-09T23:31:06.980Z,12.41
2024-05-09T23:33:36.633Z,12.23
2024-05-09T23:36:07.986Z,12.10
2024-05-09T23:38:37.966Z,12.29
2024-05-09T23:41:09.858Z,12.33
2024-05-09T23:43:39.378Z,12.14
2024-05-09T23:46:06.809Z,12.11
2024-05-09T23:48:38.288Z,11.88
2024-05-09T23:51:08.385Z,11.98
2024-05-09T23:53:38.381Z,12.01
2024-05-09T23:56:06.584Z,11.94
2024-05-09T23:58:36.509Z,11.89
